KDVT/DVT METAR and TAF weather

Enter ICAO airport designator
Station Type Date Time Source
KDVT METAR 2019/12/06 03:53 UTC NOAA

KDVT 060353Z 02006KT 10SM CLR 14/09 A3016 RMK AO2 SLP203 T01390089


Station Type Date Time Source
KDVT Decoded METAR 2019/12/06 03:53 UTC NOAA

PHOENIX-DEER VALLEY MUN, AZ, United States (KDVT) 33-41N 112-04W 443M
Dec 05, 2019 - 10:53 PM EST / 2019.12.06 0353 UTC
Wind: from the NNE (020 degrees) at 7 MPH (6 KT):0
Visibility: 10 mile(s):0
Sky conditions: clear
Temperature: 57.0 F (13.9 C)
Dew Point: 48.0 F (8.9 C)
Relative Humidity: 71%
Pressure (altimeter): 30.16 in. Hg (1021 hPa)
ob: KDVT 060353Z 02006KT 10SM CLR 14/09 A3016 RMK AO2 SLP203 T01390089
cycle: 4

Station Type Date Time Source
KDVT TAF 2019/12/05 18:42 UTC NOAA

TAF KDVT 051740Z 0518/0618 VRB05KT P6SM SCT070 SCT250
FM052000 24004KT P6SM SCT070 SCT250
FM060300 05003KT P6SM FEW070 BKN200

Example: see airport list